Time;durP1;ratioP1;P1;durP2;ratioP2;P2;SDS_P1;SDS_P2;PMS_P1;PMS_P2;Temp;Humidity;BMP_temperature;BMP_pressure;BME280_temperature;BME280_humidity;BME280_pressure;Samples;Min_cycle;Max_cycle;Signal;HPM_P1;HPM_P2
2022/04/02 00:01:26;;;;;;;;;;;;;;;;;;5052632;28;861;-60
2022/04/02 00:03:51;;;;;;;;;;;;;;;;;;5050398;28;1336;-60
2022/04/02 00:06:16;;;;;;;;;;;;;;;;;;5050815;28;1141;-60
2022/04/02 00:08:42;;;;;;;;;;;;;;;;;;5051990;28;1165;-59
2022/04/02 00:11:07;;;;;;;;;;;;;;;;;;5052453;28;798;-59
2022/04/02 00:13:34;;;;;;;;;;;;;;;;;;5052282;28;1901;-59
2022/04/02 00:16:00;;;;;;;;;;;;;;;;;;5052726;28;830;-60
2022/04/02 00:18:25;;;;;;;;;;;;;;;;;;5052401;28;832;-59
2022/04/02 00:20:51;;;;;;;;;;;;;;;;;;5052453;28;841;-59
2022/04/02 00:26:01;;;;;;;;;;;;;;;;;;5052285;28;652;-60
2022/04/02 00:28:26;;;;;;;;;;;;;;;;;;5052351;28;876;-59
2022/04/02 00:30:52;;;;;;;;;;;;;;;;;;5051685;28;948;-60
2022/04/02 00:33:17;;;;;;;;;;;;;;;;;;5052254;28;1898;-60
2022/04/02 00:35:42;;;;;;;;;;;;;;;;;;5052026;28;774;-60
2022/04/02 00:38:07;;;;;;;;;;;;;;;;;;5051681;28;1351;-60
2022/04/02 00:40:34;;;;;;;;;;;;;;;;;;5034462;28;901;-60
2022/04/02 00:42:59;;;;;;;;;;;;;;;;;;5051277;28;825;-60
2022/04/02 00:45:24;;;;;;;;;;;;;;;;;;5051940;28;814;-60
2022/04/02 00:47:49;;;;;;;;;;;;;;;;;;5033574;28;908;-60
2022/04/02 00:50:16;;;;;;;;;;;;;;;;;;5052311;28;992;-60
2022/04/02 00:52:42;;;;;;;;;;;;;;;;;;5033849;28;1918;-60
2022/04/02 00:55:07;;;;;;;;;;;;;;;;;;5051480;28;814;-60
2022/04/02 00:57:34;;;;;;;;;;;;;;;;;;5051177;28;974;-60
2022/04/02 01:00:00;;;;;;;;;;;;;;;;;;5051421;28;1234;-59
2022/04/02 01:02:26;;;;;;;;;;;;;;;;;;5051719;28;863;-60
2022/04/02 01:04:54;;;;;;;;;;;;;;;;;;5033366;28;919;-59
2022/04/02 01:07:19;;;;;;;;;;;;;;;;;;5052486;28;816;-60
2022/04/02 01:09:44;;;;;;;;;;;;;;;;;;5051542;28;908;-59
2022/04/02 01:12:10;;;;;;;;;;;;;;;;;;5051571;28;1894;-60
2022/04/02 01:14:35;;;;;;;;;;;;;;;;;;5051913;28;876;-59
2022/04/02 01:17:01;;;;;;;;;;;;;;;;;;5051767;28;840;-60
2022/04/02 01:19:27;;;;;;;;;;;;;;;;;;5033783;28;860;-60
2022/04/02 01:21:52;;;;;;;;;;;;;;;;;;5050940;28;869;-59
2022/04/02 01:24:17;;;;;;;;;;;;;;;;;;5051341;28;863;-60
2022/04/02 01:26:43;;;;;;;;;;;;;;;;;;5051460;28;790;-60
2022/04/02 01:29:08;;;;;;;;;;;;;;;;;;5033267;28;853;-60
2022/04/02 01:31:33;;;;;;;;;;;;;;;;;;5051643;28;916;-60
2022/04/02 01:33:59;;;;;;;;;;;;;;;;;;5051151;28;1952;-59
2022/04/02 01:36:24;;;;;;;;;;;;;;;;;;5051622;28;978;-60
2022/04/02 01:38:50;;;;;;;;;;;;;;;;;;5051612;28;887;-60
2022/04/02 01:41:15;;;;;;;;;;;;;;;;;;5033673;28;1085;-60
2022/04/02 01:43:41;;;;;;;;;;;;;;;;;;5051348;28;1149;-60
2022/04/02 01:46:07;;;;;;;;;;;;;;;;;;5050805;28;940;-60
2022/04/02 01:48:32;;;;;;;;;;;;;;;;;;5051513;28;884;-61
2022/04/02 01:50:58;;;;;;;;;;;;;;;;;;5051314;28;868;-59
2022/04/02 01:53:24;;;;;;;;;;;;;;;;;;5051483;28;1906;-60
2022/04/02 01:55:50;;;;;;;;;;;;;;;;;;5033369;28;1198;-60
2022/04/02 01:58:16;;;;;;;;;;;;;;;;;;5033288;28;1679;-60
2022/04/02 02:00:41;;;;;;;;;;;;;;;;;;5033757;28;1664;-60
2022/04/02 02:03:07;;;;;;;;;;;;;;;;;;5050296;28;833;-60
2022/04/02 02:05:33;;;;;;;;;;;;;;;;;;5050874;28;1034;-60
2022/04/02 02:07:58;;;;;;;;;;;;;;;;;;5050234;28;848;-60
2022/04/02 02:10:23;;;;;;;;;;;;;;;;;;5050638;28;802;-60
2022/04/02 02:12:48;;;;;;;;;;;;;;;;;;5050303;28;1902;-60
2022/04/02 02:15:17;;;;;;;;;;;;;;;;;;5050830;28;805;-60
2022/04/02 02:17:49;;;;;;;;;;;;;;;;;;5051177;28;898;-60
2022/04/02 02:20:15;;;;;;;;;;;;;;;;;;5050519;28;861;-60
2022/04/02 02:22:41;;;;;;;;;;;;;;;;;;5050776;28;915;-60
2022/04/02 02:25:07;;;;;;;;;;;;;;;;;;5050191;28;1003;-60
2022/04/02 02:27:32;;;;;;;;;;;;;;;;;;5050517;28;885;-60
2022/04/02 02:29:58;;;;;;;;;;;;;;;;;;5050200;28;870;-60
2022/04/02 02:32:25;;;;;;;;;;;;;;;;;;5066061;28;1902;-60
2022/04/02 02:37:34;;;;;;;;;;;;;;;;;;5054391;28;1077;-60
2022/04/02 02:39:59;;;;;;;;;;;;;;;;;;5053960;28;825;-60
2022/04/02 02:42:25;;;;;;;;;;;;;;;;;;5054105;28;811;-60
2022/04/02 02:44:51;;;;;;;;;;;;;;;;;;5054192;28;932;-60
2022/04/02 02:47:16;;;;;;;;;;;;;;;;;;5054396;28;774;-60
2022/04/02 02:49:41;;;;;;;;;;;;;;;;;;5054391;28;912;-60
2022/04/02 02:52:06;;;;;;;;;;;;;;;;;;5054025;28;1914;-60
2022/04/02 02:54:32;;;;;;;;;;;;;;;;;;5054123;28;938;-60
2022/04/02 02:56:58;;;;;;;;;;;;;;;;;;5035646;28;1231;-61
2022/04/02 02:59:23;;;;;;;;;;;;;;;;;;5053725;28;1166;-60
2022/04/02 03:01:49;;;;;;;;;;;;;;;;;;5054159;28;778;-60
2022/04/02 03:04:14;;;;;;;;;;;;;;;;;;5054076;28;870;-60
2022/04/02 03:06:39;;;;;;;;;;;;;;;;;;5054304;28;829;-60
2022/04/02 03:09:04;;;;;;;;;;;;;;;;;;5053740;28;983;-60
2022/04/02 03:11:30;;;;;;;;;;;;;;;;;;5054640;28;879;-60
2022/04/02 03:13:55;;;;;;;;;;;;;;;;;;5053751;28;1902;-60
2022/04/02 03:16:21;;;;;;;;;;;;;;;;;;5036435;28;908;-59
2022/04/02 03:18:47;;;;;;;;;;;;;;;;;;5054252;28;841;-59
2022/04/02 03:21:12;;;;;;;;;;;;;;;;;;5053871;28;809;-60
2022/04/02 03:23:37;;;;;;;;;;;;;;;;;;5053972;28;911;-60
2022/04/02 03:26:02;;;;;;;;;;;;;;;;;;5053421;28;751;-60
2022/04/02 03:28:28;;;;;;;;;;;;;;;;;;5053756;28;912;-60
2022/04/02 03:30:53;;;;;;;;;;;;;;;;;;5053969;28;777;-60
2022/04/02 03:33:20;;;;;;;;;;;;;;;;;;5035837;28;1981;-60
2022/04/02 03:35:46;;;;;;;;;;;;;;;;;;5053866;28;1285;-60
2022/04/02 03:38:11;;;;;;;;;;;;;;;;;;5052701;28;1239;-59
2022/04/02 03:40:36;;;;;;;;;;;;;;;;;;5053550;28;852;-59
2022/04/02 03:43:01;;;;;;;;;;;;;;;;;;5053570;28;825;-59
2022/04/02 03:45:27;;;;;;;;;;;;;;;;;;5035118;28;893;-59
2022/04/02 03:47:52;;;;;;;;;;;;;;;;;;5052322;28;948;-60
2022/04/02 03:50:18;;;;;;;;;;;;;;;;;;5053009;28;1086;-59
2022/04/02 03:52:43;;;;;;;;;;;;;;;;;;5053112;28;1973;-60
2022/04/02 03:55:09;;;;;;;;;;;;;;;;;;5034742;28;918;-61
2022/04/02 03:57:35;;;;;;;;;;;;;;;;;;5035336;28;1266;-62
2022/04/02 04:00:01;;;;;;;;;;;;;;;;;;5052839;28;813;-61
2022/04/02 04:02:26;;;;;;;;;;;;;;;;;;5052561;28;836;-62
2022/04/02 04:04:52;;;;;;;;;;;;;;;;;;5052965;28;841;-61
2022/04/02 04:07:18;;;;;;;;;;;;;;;;;;5034813;28;919;-61
2022/04/02 04:09:43;;;;;;;;;;;;;;;;;;5052924;28;896;-61
2022/04/02 04:12:10;;;;;;;;;;;;;;;;;;5052479;28;1953;-61
2022/04/02 04:14:35;;;;;;;;;;;;;;;;;;5052593;28;905;-61
2022/04/02 04:17:01;;;;;;;;;;;;;;;;;;5052885;28;882;-61
2022/04/02 04:19:26;;;;;;;;;;;;;;;;;;5052494;28;861;-61
2022/04/02 04:21:53;;;;;;;;;;;;;;;;;;5052232;28;864;-61
2022/04/02 04:24:18;;;;;;;;;;;;;;;;;;5052267;28;901;-62
2022/04/02 04:26:43;;;;;;;;;;;;;;;;;;5052219;28;829;-61
2022/04/02 04:29:09;;;;;;;;;;;;;;;;;;5052395;28;782;-61
2022/04/02 04:31:34;;;;;;;;;;;;;;;;;;5051994;28;825;-62
2022/04/02 04:33:59;;;;;;;;;;;;;;;;;;5051997;28;1901;-62
2022/04/02 04:36:25;;;;;;;;;;;;;;;;;;5033448;28;1094;-62
2022/04/02 04:38:50;;;;;;;;;;;;;;;;;;5052440;28;912;-62
2022/04/02 04:41:19;;;;;;;;;;;;;;;;;;5051981;28;716;-62
2022/04/02 04:43:48;;;;;;;;;;;;;;;;;;5050266;28;850;-61
2022/04/02 04:46:13;;;;;;;;;;;;;;;;;;5051807;28;817;-61
2022/04/02 04:48:39;;;;;;;;;;;;;;;;;;5052261;28;888;-62
2022/04/02 04:51:04;;;;;;;;;;;;;;;;;;5052073;28;1246;-61
2022/04/02 04:53:31;;;;;;;;;;;;;;;;;;5033965;28;1969;-61
2022/04/02 04:55:56;;;;;;;;;;;;;;;;;;5052091;28;891;-61
2022/04/02 04:58:21;;;;;;;;;;;;;;;;;;5051902;28;971;-59
2022/04/02 05:00:47;;;;;;;;;;;;;;;;;;5051738;28;888;-61
2022/04/02 05:03:12;;;;;;;;;;;;;;;;;;5051921;28;887;-61
2022/04/02 05:05:38;;;;;;;;;;;;;;;;;;5051408;28;923;-61
2022/04/02 05:08:04;;;;;;;;;;;;;;;;;;5033446;28;802;-61
2022/04/02 05:10:29;;;;;;;;;;;;;;;;;;5033329;28;2256;-61
2022/04/02 05:12:54;;;;;;;;;;;;;;;;;;5051561;28;1907;-61
2022/04/02 05:15:20;;;;;;;;;;;;;;;;;;5051475;28;746;-61
2022/04/02 05:17:46;;;;;;;;;;;;;;;;;;5052045;28;900;-61
2022/04/02 05:20:13;;;;;;;;;;;;;;;;;;5051580;28;924;-61
2022/04/02 05:22:38;;;;;;;;;;;;;;;;;;5051187;28;926;-61
2022/04/02 05:25:05;;;;;;;;;;;;;;;;;;5050973;28;1208;-61
2022/04/02 05:27:30;;;;;;;;;;;;;;;;;;5051043;28;1119;-61
2022/04/02 05:29:56;;;;;;;;;;;;;;;;;;5050907;28;987;-61
2022/04/02 05:32:21;;;;;;;;;;;;;;;;;;5050579;28;1910;-61
2022/04/02 05:34:47;;;;;;;;;;;;;;;;;;5050489;28;1211;-61
2022/04/02 05:37:13;;;;;;;;;;;;;;;;;;5050786;28;1088;-61
2022/04/02 05:39:39;;;;;;;;;;;;;;;;;;5050811;28;832;-61
2022/04/02 05:42:07;;;;;;;;;;;;;;;;;;5050969;28;778;-61
2022/04/02 05:44:32;;;;;;;;;;;;;;;;;;5050750;28;877;-62
2022/04/02 05:46:57;;;;;;;;;;;;;;;;;;5033086;28;869;-61
2022/04/02 05:49:22;;;;;;;;;;;;;;;;;;5050510;28;904;-61
2022/04/02 05:51:48;;;;;;;;;;;;;;;;;;5050602;28;1007;-62
2022/04/02 05:54:14;;;;;;;;;;;;;;;;;;5032359;28;1918;-61
2022/04/02 05:56:39;;;;;;;;;;;;;;;;;;5050379;28;883;-61
2022/04/02 05:59:05;;;;;;;;;;;;;;;;;;5050930;28;925;-61
2022/04/02 06:01:31;;;;;;;;;;;;;;;;;;5032399;28;1184;-61
2022/04/02 06:03:57;;;;;;;;;;;;;;;;;;5050346;28;878;-61
2022/04/02 06:06:22;;;;;;;;;;;;;;;;;;5050400;28;794;-61
2022/04/02 06:08:47;;;;;;;;;;;;;;;;;;5050477;28;935;-61
2022/04/02 06:11:13;;;;;;;;;;;;;;;;;;5052575;28;833;-61
2022/04/02 06:13:38;;;;;;;;;;;;;;;;;;5036109;28;1914;-61
2022/04/02 06:16:03;;;;;;;;;;;;;;;;;;5054101;28;837;-61
2022/04/02 06:18:29;;;;;;;;;;;;;;;;;;5054354;28;782;-60
2022/04/02 06:20:54;;;;;;;;;;;;;;;;;;5054669;28;885;-61
2022/04/02 06:23:19;;;;;;;;;;;;;;;;;;5054479;28;888;-60
2022/04/02 06:25:45;;;;;;;;;;;;;;;;;;5053991;28;986;-61
2022/04/02 06:28:11;;;;;;;;;;;;;;;;;;5054365;28;928;-60
2022/04/02 06:30:36;;;;;;;;;;;;;;;;;;5053939;28;825;-61
2022/04/02 06:33:01;;;;;;;;;;;;;;;;;;5054055;28;1918;-61
2022/04/02 06:35:27;;;;;;;;;;;;;;;;;;5054295;28;799;-60
2022/04/02 06:37:55;;;;;;;;;;;;;;;;;;5054045;28;1233;-60
2022/04/02 06:40:22;;;;;;;;;;;;;;;;;;5054230;28;944;-60
2022/04/02 06:42:47;;;;;;;;;;;;;;;;;;5054115;28;916;-61
2022/04/02 06:45:13;;;;;;;;;;;;;;;;;;5053956;28;747;-60
2022/04/02 06:47:38;;;;;;;;;;;;;;;;;;5053778;28;881;-60
2022/04/02 06:50:04;;;;;;;;;;;;;;;;;;5053753;28;848;-60
2022/04/02 06:52:30;;;;;;;;;;;;;;;;;;5035555;28;1965;-60
2022/04/02 06:54:56;;;;;;;;;;;;;;;;;;5053996;28;844;-60
2022/04/02 06:57:21;;;;;;;;;;;;;;;;;;5054139;28;886;-60
2022/04/02 06:59:47;;;;;;;;;;;;;;;;;;5054070;28;887;-61
2022/04/02 07:02:12;;;;;;;;;;;;;;;;;;5054013;28;928;-60
2022/04/02 07:04:38;;;;;;;;;;;;;;;;;;5053802;28;880;-60
2022/04/02 07:07:03;;;;;;;;;;;;;;;;;;5053476;28;932;-61
2022/04/02 07:09:28;;;;;;;;;;;;;;;;;;5054080;28;838;-60
2022/04/02 07:11:54;;;;;;;;;;;;;;;;;;5053611;28;939;-61
2022/04/02 07:14:19;;;;;;;;;;;;;;;;;;5054207;28;1967;-60
2022/04/02 07:16:44;;;;;;;;;;;;;;;;;;5053794;28;880;-60
2022/04/02 07:19:10;;;;;;;;;;;;;;;;;;5053201;28;940;-60
2022/04/02 07:21:35;;;;;;;;;;;;;;;;;;5052708;28;951;-61
2022/04/02 07:24:01;;;;;;;;;;;;;;;;;;5052913;28;801;-60
2022/04/02 07:26:26;;;;;;;;;;;;;;;;;;5053000;28;934;-60
2022/04/02 07:28:53;;;;;;;;;;;;;;;;;;5052780;28;965;-61
2022/04/02 07:31:18;;;;;;;;;;;;;;;;;;5053241;28;833;-61
2022/04/02 07:33:44;;;;;;;;;;;;;;;;;;5052842;28;1910;-61
2022/04/02 07:36:33;;;;;;;;;;;;;;;;;;5052831;28;805;-61
2022/04/02 07:39:01;;;;;;;;;;;;;;;;;;5014594;28;1240;-61
2022/04/02 07:41:33;;;;;;;;;;;;;;;;;;5052848;28;956;-61
2022/04/02 07:44:02;;;;;;;;;;;;;;;;;;5052673;28;880;-61
2022/04/02 07:46:29;;;;;;;;;;;;;;;;;;5053243;28;944;-61
2022/04/02 07:48:55;;;;;;;;;;;;;;;;;;5052762;28;821;-61
2022/04/02 07:51:24;;;;;;;;;;;;;;;;;;5052864;28;995;-61
2022/04/02 07:53:50;;;;;;;;;;;;;;;;;;5053318;28;1973;-61
2022/04/02 07:56:19;;;;;;;;;;;;;;;;;;5052839;28;783;-61
2022/04/02 07:58:49;;;;;;;;;;;;;;;;;;5052673;28;984;-61
2022/04/02 08:01:16;;;;;;;;;;;;;;;;;;5051988;28;1043;-61
2022/04/02 08:03:42;;;;;;;;;;;;;;;;;;5052030;28;872;-61
2022/04/02 08:06:08;;;;;;;;;;;;;;;;;;5052349;28;821;-61
2022/04/02 08:08:34;;;;;;;;;;;;;;;;;;5034303;28;1356;-61
2022/04/02 08:11:01;;;;;;;;;;;;;;;;;;5051951;28;872;-61
2022/04/02 08:13:29;;;;;;;;;;;;;;;;;;5052125;28;1942;-60
2022/04/02 08:15:56;;;;;;;;;;;;;;;;;;5051973;28;781;-61
2022/04/02 08:18:23;;;;;;;;;;;;;;;;;;5052211;28;957;-61
2022/04/02 08:20:50;;;;;;;;;;;;;;;;;;5052121;28;811;-61
2022/04/02 08:23:15;;;;;;;;;;;;;;;;;;5051889;28;1029;-61
2022/04/02 08:25:46;;;;;;;;;;;;;;;;;;5051771;28;900;-61
2022/04/02 08:28:39;;;;;;;;;;;;;;;;;;5051868;28;795;-60
2022/04/02 08:31:22;;;;;;;;;;;;;;;;;;5048057;28;1395;-61
2022/04/02 08:34:04;;;;;;;;;;;;;;;;;;5051553;28;1960;-61
2022/04/02 08:36:29;;;;;;;;;;;;;;;;;;5051534;28;797;-61
2022/04/02 08:38:57;;;;;;;;;;;;;;;;;;5051059;28;1117;-61
2022/04/02 08:41:23;;;;;;;;;;;;;;;;;;5052649;28;806;-61
2022/04/02 08:44:04;;;;;;;;;;;;;;;;;;5051918;28;907;-60
2022/04/02 08:46:39;;;;;;;;;;;;;;;;;;5052227;28;906;-61
2022/04/02 08:49:16;;;;;;;;;;;;;;;;;;5051486;28;860;-61
2022/04/02 08:51:43;;;;;;;;;;;;;;;;;;5051990;28;896;-61
2022/04/02 08:54:28;;;;;;;;;;;;;;;;;;5051753;28;1934;-61
2022/04/02 08:57:12;;;;;;;;;;;;;;;;;;5051897;28;809;-61
2022/04/02 08:59:38;;;;;;;;;;;;;;;;;;5033942;28;879;-61
2022/04/02 09:02:22;;;;;;;;;;;;;;;;;;5051486;28;943;-61
2022/04/02 09:04:48;;;;;;;;;;;;;;;;;;5051505;28;1026;-61
2022/04/02 09:07:31;;;;;;;;;;;;;;;;;;5051246;28;999;-61
2022/04/02 09:10:23;;;;;;;;;;;;;;;;;;5032701;28;967;-61
2022/04/02 09:12:54;;;;;;;;;;;;;;;;;;5020249;28;1955;-61
2022/04/02 09:15:30;;;;;;;;;;;;;;;;;;5051088;28;782;-61
2022/04/02 09:18:01;;;;;;;;;;;;;;;;;;5032790;28;884;-61
2022/04/02 09:20:34;;;;;;;;;;;;;;;;;;5032991;28;1389;-61
2022/04/02 09:23:02;;;;;;;;;;;;;;;;;;5050787;28;884;-61
2022/04/02 09:25:30;;;;;;;;;;;;;;;;;;5050938;28;967;-61
2022/04/02 09:28:10;;;;;;;;;;;;;;;;;;5050486;28;984;-61
2022/04/02 09:30:35;;;;;;;;;;;;;;;;;;5050705;28;972;-61
2022/04/02 09:33:01;;;;;;;;;;;;;;;;;;5049996;28;1965;-61
2022/04/02 09:35:26;;;;;;;;;;;;;;;;;;5051321;28;829;-61
2022/04/02 09:37:58;;;;;;;;;;;;;;;;;;5032341;28;1343;-61
2022/04/02 09:40:35;;;;;;;;;;;;;;;;;;5050653;28;1058;-61
2022/04/02 09:43:10;;;;;;;;;;;;;;;;;;5032266;28;891;-61
2022/04/02 09:45:44;;;;;;;;;;;;;;;;;;5032329;28;949;-61
2022/04/02 09:48:27;;;;;;;;;;;;;;;;;;5050729;28;805;-61
2022/04/02 09:50:56;;;;;;;;;;;;;;;;;;5050462;28;869;-61
2022/04/02 09:53:29;;;;;;;;;;;;;;;;;;5051469;28;1966;-61
2022/04/02 09:56:13;;;;;;;;;;;;;;;;;;5051255;28;802;-61
2022/04/02 09:58:48;;;;;;;;;;;;;;;;;;5030854;28;1019;-61
2022/04/02 10:01:21;;;;;;;;;;;;;;;;;;5030749;28;790;-61
2022/04/02 10:03:52;;;;;;;;;;;;;;;;;;5031303;28;853;-61
2022/04/02 10:06:20;;;;;;;;;;;;;;;;;;5030884;28;837;-61
2022/04/02 10:08:56;;;;;;;;;;;;;;;;;;5031325;28;864;-61
2022/04/02 10:11:26;;;;;;;;;;;;;;;;;;5030566;28;1076;-61
2022/04/02 10:13:52;;;;;;;;;;;;;;;;;;5030781;28;1886;-61
2022/04/02 10:16:18;;;;;;;;;;;;;;;;;;5030856;28;884;-61
2022/04/02 10:18:44;;;;;;;;;;;;;;;;;;5031022;28;1168;-60
2022/04/02 10:21:09;;;;;;;;;;;;;;;;;;5030765;28;833;-61
2022/04/02 10:23:36;;;;;;;;;;;;;;;;;;5031650;28;833;-62
2022/04/02 10:26:17;;;;;;;;;;;;;;;;;;5030782;28;892;-59
2022/04/02 10:28:56;;;;;;;;;;;;;;;;;;5031183;28;833;-60
2022/04/02 10:31:34;;;;;;;;;;;;;;;;;;5031420;28;932;-60
2022/04/02 10:34:07;;;;;;;;;;;;;;;;;;5030994;28;1874;-60
2022/04/02 10:36:37;;;;;;;;;;;;;;;;;;5031474;28;879;-59
2022/04/02 10:39:02;;;;;;;;;;;;;;;;;;5030836;28;1258;-60
2022/04/02 10:41:28;;;;;;;;;;;;;;;;;;5031387;28;889;-60
2022/04/02 10:44:02;;;;;;;;;;;;;;;;;;5030587;28;1063;-60
2022/04/02 10:46:31;;;;;;;;;;;;;;;;;;5030739;28;903;-60
2022/04/02 10:48:59;;;;;;;;;;;;;;;;;;5030886;28;832;-60
2022/04/02 10:51:25;;;;;;;;;;;;;;;;;;5031141;28;836;-60
2022/04/02 10:54:01;;;;;;;;;;;;;;;;;;5031309;28;1918;-61
2022/04/02 10:56:46;;;;;;;;;;;;;;;;;;5031024;28;934;-61
2022/04/02 10:59:14;;;;;;;;;;;;;;;;;;5032761;28;954;-61
2022/04/02 11:01:41;;;;;;;;;;;;;;;;;;5033967;28;920;-61
2022/04/02 11:04:33;;;;;;;;;;;;;;;;;;5015845;28;906;-61
2022/04/02 11:06:59;;;;;;;;;;;;;;;;;;5033375;28;908;-61
2022/04/02 11:09:29;;;;;;;;;;;;;;;;;;5033842;28;809;-61
2022/04/02 11:12:04;;;;;;;;;;;;;;;;;;5016052;28;1336;-60
2022/04/02 11:14:36;;;;;;;;;;;;;;;;;;5033753;28;1963;-61
2022/04/02 11:17:01;;;;;;;;;;;;;;;;;;5015500;28;1594;-61
2022/04/02 11:22:15;;;;;;;;;;;;;;;;;;5033731;28;795;-61
2022/04/02 11:24:52;;;;;;;;;;;;;;;;;;5034002;28;892;-61
2022/04/02 11:27:20;;;;;;;;;;;;;;;;;;5033003;28;1015;-61
2022/04/02 11:29:48;;;;;;;;;;;;;;;;;;4999556;28;888;-61
2022/04/02 11:32:15;;;;;;;;;;;;;;;;;;5033060;28;759;-61
2022/04/02 11:34:42;;;;;;;;;;;;;;;;;;5033596;28;1977;-61
2022/04/02 11:37:10;;;;;;;;;;;;;;;;;;5032625;28;1246;-61
2022/04/02 11:39:45;;;;;;;;;;;;;;;;;;5032924;28;1149;-61
2022/04/02 11:42:13;;;;;;;;;;;;;;;;;;5032921;28;817;-60
2022/04/02 11:44:38;;;;;;;;;;;;;;;;;;5033499;28;823;-60
2022/04/02 11:47:05;;;;;;;;;;;;;;;;;;5032500;28;991;-59
2022/04/02 11:49:32;;;;;;;;;;;;;;;;;;5032973;28;833;-60
2022/04/02 11:52:02;;;;;;;;;;;;;;;;;;5033836;28;971;-59
2022/04/02 11:54:27;;;;;;;;;;;;;;;;;;5032842;28;1981;-60
2022/04/02 11:57:04;;;;;;;;;;;;;;;;;;5033191;28;880;-60
2022/04/02 11:59:30;;;;;;;;;;;;;;;;;;5032836;28;853;-60
2022/04/02 12:01:56;;;;;;;;;;;;;;;;;;5033327;28;848;-60
2022/04/02 12:04:25;;;;;;;;;;;;;;;;;;5032991;28;854;-60
2022/04/02 12:06:51;;;;;;;;;;;;;;;;;;5033205;28;825;-60
2022/04/02 12:09:17;;;;;;;;;;;;;;;;;;5032700;28;916;-60
2022/04/02 12:11:53;;;;;;;;;;;;;;;;;;5033059;28;857;-60
2022/04/02 12:14:45;;;;;;;;;;;;;;;;;;5032498;28;1898;-60
2022/04/02 12:17:12;;;;;;;;;;;;;;;;;;5028367;28;1641;-60
2022/04/02 12:19:41;;;;;;;;;;;;;;;;;;5032995;28;797;-60
2022/04/02 12:22:31;;;;;;;;;;;;;;;;;;5032431;28;802;-60
2022/04/02 12:24:58;;;;;;;;;;;;;;;;;;5033305;28;915;-60
2022/04/02 12:27:33;;;;;;;;;;;;;;;;;;5032783;28;940;-60
2022/04/02 12:30:00;;;;;;;;;;;;;;;;;;5032727;28;926;-60
2022/04/02 12:32:31;;;;;;;;;;;;;;;;;;5032446;28;1898;-60
2022/04/02 12:34:57;;;;;;;;;;;;;;;;;;5014662;28;1652;-60
2022/04/02 12:37:23;;;;;;;;;;;;;;;;;;5032044;28;1066;-60
2022/04/02 12:39:50;;;;;;;;;;;;;;;;;;5032552;28;1074;-60
2022/04/02 12:42:34;;;;;;;;;;;;;;;;;;5031960;28;979;-60
2022/04/02 12:45:15;;;;;;;;;;;;;;;;;;5032277;28;826;-60
2022/04/02 12:47:54;;;;;;;;;;;;;;;;;;5032573;28;825;-60
2022/04/02 12:50:19;;;;;;;;;;;;;;;;;;5032081;28;905;-60
2022/04/02 12:52:46;;;;;;;;;;;;;;;;;;5031925;28;1955;-61
2022/04/02 12:55:19;;;;;;;;;;;;;;;;;;5031311;28;758;-60
2022/04/02 12:57:58;;;;;;;;;;;;;;;;;;5032191;28;893;-60
2022/04/02 13:00:26;;;;;;;;;;;;;;;;;;5031393;28;845;-60
2022/04/02 13:02:55;;;;;;;;;;;;;;;;;;5031514;28;888;-60
2022/04/02 13:05:23;;;;;;;;;;;;;;;;;;5032274;28;888;-60
2022/04/02 13:08:07;;;;;;;;;;;;;;;;;;5032030;28;798;-60
2022/04/02 13:10:40;;;;;;;;;;;;;;;;;;5031605;28;888;-59
2022/04/02 13:13:07;;;;;;;;;;;;;;;;;;5031479;28;1910;-59
2022/04/02 13:15:33;;;;;;;;;;;;;;;;;;5031605;28;867;-59
2022/04/02 13:20:44;;;;;;;;;;;;;;;;;;5031212;28;682;-60
2022/04/02 13:23:26;;;;;;;;;;;;;;;;;;5031391;28;916;-60
2022/04/02 13:26:02;;;;;;;;;;;;;;;;;;5031756;28;837;-60
2022/04/02 13:28:55;;;;;;;;;;;;;;;;;;5031606;28;960;-60
2022/04/02 13:31:25;;;;;;;;;;;;;;;;;;5031511;28;1046;-60
2022/04/02 13:33:53;;;;;;;;;;;;;;;;;;5031295;28;1906;-60
2022/04/02 13:36:32;;;;;;;;;;;;;;;;;;5031350;28;983;-60
2022/04/02 13:39:00;;;;;;;;;;;;;;;;;;5031014;28;1172;-60
2022/04/02 13:41:30;;;;;;;;;;;;;;;;;;5031613;28;822;-60
2022/04/02 13:43:56;;;;;;;;;;;;;;;;;;5031803;28;829;-61
2022/04/02 13:46:34;;;;;;;;;;;;;;;;;;5031329;28;932;-61
2022/04/02 13:49:06;;;;;;;;;;;;;;;;;;5031195;28;841;-60
2022/04/02 13:51:31;;;;;;;;;;;;;;;;;;5030972;28;911;-61
2022/04/02 13:54:04;;;;;;;;;;;;;;;;;;5031192;28;1902;-61
2022/04/02 13:56:33;;;;;;;;;;;;;;;;;;5034118;28;1205;-60
2022/04/02 13:59:00;;;;;;;;;;;;;;;;;;5049350;28;1169;-61
2022/04/02 14:01:26;;;;;;;;;;;;;;;;;;5049684;28;1161;-60
2022/04/02 14:04:04;;;;;;;;;;;;;;;;;;5044595;28;1205;-61
2022/04/02 14:06:30;;;;;;;;;;;;;;;;;;5030465;28;1138;-61
2022/04/02 14:09:01;;;;;;;;;;;;;;;;;;5031221;28;932;-61
2022/04/02 14:11:37;;;;;;;;;;;;;;;;;;5031223;28;1035;-61
2022/04/02 14:14:05;;;;;;;;;;;;;;;;;;5031012;28;1902;-61
2022/04/02 14:16:32;;;;;;;;;;;;;;;;;;5031253;28;889;-61
2022/04/02 14:19:08;;;;;;;;;;;;;;;;;;5031446;28;990;-61
2022/04/02 14:21:35;;;;;;;;;;;;;;;;;;5030977;28;953;-61
2022/04/02 14:24:15;;;;;;;;;;;;;;;;;;5031101;28;1124;-60
2022/04/02 14:26:59;;;;;;;;;;;;;;;;;;5030666;28;904;-61
2022/04/02 14:29:43;;;;;;;;;;;;;;;;;;5045451;28;1480;-61
2022/04/02 14:32:27;;;;;;;;;;;;;;;;;;5032276;28;853;-61
2022/04/02 14:35:19;;;;;;;;;;;;;;;;;;5049976;28;1150;-60
2022/04/02 14:38:03;;;;;;;;;;;;;;;;;;5050092;28;2005;-61
2022/04/02 14:40:44;;;;;;;;;;;;;;;;;;5054172;28;865;-61
2022/04/02 14:43:13;;;;;;;;;;;;;;;;;;5054189;28;875;-60
2022/04/02 14:45:55;;;;;;;;;;;;;;;;;;5054197;28;786;-60
2022/04/02 14:48:26;;;;;;;;;;;;;;;;;;5036197;28;1000;-61
2022/04/02 14:51:19;;;;;;;;;;;;;;;;;;5054456;28;912;-60
2022/04/02 14:53:47;;;;;;;;;;;;;;;;;;5053815;28;1918;-61
2022/04/02 14:56:32;;;;;;;;;;;;;;;;;;5053929;28;971;-60
2022/04/02 14:58:57;;;;;;;;;;;;;;;;;;5053990;28;900;-60
2022/04/02 15:01:22;;;;;;;;;;;;;;;;;;5053311;28;955;-60
2022/04/02 15:04:04;;;;;;;;;;;;;;;;;;5036086;28;936;-61
2022/04/02 15:06:48;;;;;;;;;;;;;;;;;;5035673;28;1306;-61
2022/04/02 15:09:13;;;;;;;;;;;;;;;;;;5053351;28;845;-61
2022/04/02 15:11:48;;;;;;;;;;;;;;;;;;5053430;28;830;-61
2022/04/02 15:14:17;;;;;;;;;;;;;;;;;;5053384;28;1965;-60
2022/04/02 15:16:42;;;;;;;;;;;;;;;;;;5035674;28;829;-61
2022/04/02 15:19:11;;;;;;;;;;;;;;;;;;5053130;28;880;-61
2022/04/02 15:21:36;;;;;;;;;;;;;;;;;;5053239;28;789;-60
2022/04/02 15:24:02;;;;;;;;;;;;;;;;;;5053051;28;888;-61
2022/04/02 15:26:27;;;;;;;;;;;;;;;;;;5034802;28;1249;-61
2022/04/02 15:29:06;;;;;;;;;;;;;;;;;;5018650;28;928;-61
2022/04/02 15:31:32;;;;;;;;;;;;;;;;;;5052736;28;967;-61
2022/04/02 15:33:57;;;;;;;;;;;;;;;;;;5053191;28;1965;-62
2022/04/02 15:36:23;;;;;;;;;;;;;;;;;;5053244;28;786;-60
2022/04/02 15:38:55;;;;;;;;;;;;;;;;;;5053514;28;1647;-61
2022/04/02 15:41:21;;;;;;;;;;;;;;;;;;5053269;28;837;-61
2022/04/02 15:43:47;;;;;;;;;;;;;;;;;;5052894;28;938;-61
2022/04/02 15:46:21;;;;;;;;;;;;;;;;;;5052931;28;778;-61
2022/04/02 15:49:05;;;;;;;;;;;;;;;;;;5053669;28;825;-61
2022/04/02 15:51:31;;;;;;;;;;;;;;;;;;5052953;28;1007;-61
2022/04/02 15:54:15;;;;;;;;;;;;;;;;;;5053357;28;1985;-60
2022/04/02 15:56:58;;;;;;;;;;;;;;;;;;5053214;28;999;-60
2022/04/02 15:59:24;;;;;;;;;;;;;;;;;;5053209;28;702;-60
2022/04/02 16:01:49;;;;;;;;;;;;;;;;;;5052398;28;864;-60
2022/04/02 16:04:18;;;;;;;;;;;;;;;;;;5052566;28;971;-60
2022/04/02 16:06:44;;;;;;;;;;;;;;;;;;5051553;28;876;-60
2022/04/02 16:09:18;;;;;;;;;;;;;;;;;;5052331;28;995;-60
2022/04/02 16:11:47;;;;;;;;;;;;;;;;;;5034543;28;713;-60
2022/04/02 16:14:25;;;;;;;;;;;;;;;;;;5034637;28;1904;-60
2022/04/02 16:16:50;;;;;;;;;;;;;;;;;;5052897;28;859;-60
2022/04/02 16:19:28;;;;;;;;;;;;;;;;;;5034639;28;1183;-60
2022/04/02 16:21:53;;;;;;;;;;;;;;;;;;5052081;28;861;-60
2022/04/02 16:24:19;;;;;;;;;;;;;;;;;;5052637;28;955;-60
2022/04/02 16:26:51;;;;;;;;;;;;;;;;;;5052379;28;782;-59
2022/04/02 16:29:17;;;;;;;;;;;;;;;;;;5052428;28;896;-61
2022/04/02 16:31:43;;;;;;;;;;;;;;;;;;5052042;28;899;-60
2022/04/02 16:34:08;;;;;;;;;;;;;;;;;;5051606;28;1901;-60
2022/04/02 16:36:35;;;;;;;;;;;;;;;;;;5033811;28;959;-60
2022/04/02 16:39:02;;;;;;;;;;;;;;;;;;5051615;28;1259;-60
2022/04/02 16:41:44;;;;;;;;;;;;;;;;;;5052194;28;816;-60
2022/04/02 16:44:23;;;;;;;;;;;;;;;;;;5052151;28;900;-60
2022/04/02 16:46:50;;;;;;;;;;;;;;;;;;5052125;28;827;-60
2022/04/02 16:49:17;;;;;;;;;;;;;;;;;;5051056;28;1530;-61
2022/04/02 16:51:44;;;;;;;;;;;;;;;;;;5051524;28;859;-60
2022/04/02 16:54:10;;;;;;;;;;;;;;;;;;5051592;28;1906;-60
2022/04/02 16:56:36;;;;;;;;;;;;;;;;;;5051571;28;967;-60
2022/04/02 16:59:01;;;;;;;;;;;;;;;;;;5051688;28;941;-61
2022/04/02 17:01:27;;;;;;;;;;;;;;;;;;5051791;28;892;-60
2022/04/02 17:03:55;;;;;;;;;;;;;;;;;;5051804;28;1018;-60
2022/04/02 17:06:33;;;;;;;;;;;;;;;;;;5051830;28;936;-60
2022/04/02 17:09:04;;;;;;;;;;;;;;;;;;5051524;28;797;-61
2022/04/02 17:11:43;;;;;;;;;;;;;;;;;;5051872;28;1108;-60
2022/04/02 17:14:09;;;;;;;;;;;;;;;;;;5051777;28;1893;-60
2022/04/02 17:16:35;;;;;;;;;;;;;;;;;;5052413;28;805;-61
2022/04/02 17:19:00;;;;;;;;;;;;;;;;;;5051536;28;863;-60
2022/04/02 17:21:26;;;;;;;;;;;;;;;;;;5051417;28;1058;-60
2022/04/02 17:23:51;;;;;;;;;;;;;;;;;;5051719;28;802;-60
2022/04/02 17:26:26;;;;;;;;;;;;;;;;;;5051647;28;825;-60
2022/04/02 17:28:52;;;;;;;;;;;;;;;;;;5051687;28;833;-60
2022/04/02 17:31:30;;;;;;;;;;;;;;;;;;5051084;28;869;-60
2022/04/02 17:34:14;;;;;;;;;;;;;;;;;;5051230;28;1898;-60
2022/04/02 17:36:39;;;;;;;;;;;;;;;;;;5051424;28;861;-60
2022/04/02 17:39:05;;;;;;;;;;;;;;;;;;5050586;28;1252;-60